createdAt,value
2023-02-19T00:00:22.210Z,74.63378906
2023-02-19T00:01:22.809Z,74.5300293
2023-02-19T00:02:23.430Z,74.63378906
2023-02-19T00:03:24.735Z,74.5300293
2023-02-19T00:04:25.310Z,74.42626953
2023-02-19T00:05:25.839Z,74.46289063
2023-02-19T00:06:26.431Z,74.46289063
2023-02-19T00:07:27.040Z,74.35913086
2023-02-19T00:08:27.519Z,74.35913086
2023-02-19T00:09:28.027Z,74.25537109
2023-02-19T00:10:29.280Z,74.35913086
2023-02-19T00:11:29.875Z,74.35913086
2023-02-19T00:12:30.385Z,74.15161133
2023-02-19T00:13:30.963Z,74.25537109
2023-02-19T00:14:31.562Z,74.15161133
2023-02-19T00:15:32.033Z,74.35913086
2023-02-19T00:16:32.549Z,74.15161133
2023-02-19T00:17:33.220Z,73.74267578
2023-02-19T00:18:33.816Z,73.53515625
2023-02-19T00:19:34.417Z,73.63891602
2023-02-19T00:20:35.716Z,73.63891602
2023-02-19T00:21:36.266Z,73.53515625
2023-02-19T00:22:36.996Z,73.63891602
2023-02-19T00:23:37.638Z,73.63891602
2023-02-19T00:24:38.208Z,73.4375
2023-02-19T00:25:38.806Z,73.4375
2023-02-19T00:26:39.310Z,73.53515625
2023-02-19T00:27:40.531Z,73.74267578
2023-02-19T00:28:41.121Z,73.74267578
2023-02-19T00:29:41.641Z,73.88305664
2023-02-19T00:30:42.810Z,73.98071289
2023-02-19T00:31:43.299Z,73.98071289
2023-02-19T00:32:43.732Z,73.98071289
2023-02-19T00:33:44.310Z,73.88305664
2023-02-19T00:34:44.820Z,73.77929688
2023-02-19T00:35:45.356Z,73.67553711
2023-02-19T00:36:45.880Z,73.57177734
2023-02-19T00:37:46.408Z,73.46801758
2023-02-19T00:38:47.443Z,73.36425781
2023-02-19T00:40:18.988Z,73.57177734
2023-02-19T00:41:19.527Z,73.77929688
2023-02-19T00:42:20.002Z,73.77929688
2023-02-19T00:43:20.593Z,73.67553711
2023-02-19T00:44:21.144Z,73.57177734
2023-02-19T00:45:21.787Z,73.67553711
2023-02-19T00:46:22.325Z,73.88305664
2023-02-19T00:47:22.810Z,73.88305664
2023-02-19T00:48:23.313Z,73.88305664
2023-02-19T00:49:23.884Z,73.88305664
2023-02-19T00:50:24.988Z,73.77929688
2023-02-19T00:51:25.600Z,73.77929688
2023-02-19T00:52:26.145Z,73.67553711
2023-02-19T00:53:26.670Z,73.70605469
2023-02-19T00:54:27.271Z,73.80981445
2023-02-19T00:55:27.861Z,73.91357422
2023-02-19T00:56:28.394Z,74.12109375
2023-02-19T00:57:28.984Z,74.12109375
2023-02-19T00:58:29.451Z,74.22485352
2023-02-19T00:59:29.994Z,74.32861328
2023-02-19T01:00:31.674Z,74.32861328
2023-02-19T01:01:32.173Z,74.46289063
2023-02-19T01:02:32.678Z,74.56665039
2023-02-19T01:03:33.242Z,74.5300293
2023-02-19T01:04:33.799Z,74.56665039
2023-02-19T01:05:34.419Z,74.46289063
2023-02-19T01:06:34.997Z,74.35913086
2023-02-19T01:07:35.552Z,74.56665039
2023-02-19T01:08:36.103Z,74.5300293
2023-02-19T01:09:36.656Z,74.22485352
2023-02-19T01:10:38.001Z,74.01733398
2023-02-19T01:11:39.514Z,74.01733398
2023-02-19T01:12:40.149Z,74.12109375
2023-02-19T01:13:40.980Z,73.80981445
2023-02-19T01:14:41.532Z,73.70605469
2023-02-19T01:15:42.378Z,73.70605469
2023-02-19T01:16:42.662Z,73.70605469
2023-02-19T01:17:43.227Z,73.80981445
2023-02-19T01:18:43.737Z,73.50463867
2023-02-19T01:19:44.256Z,73.60839844
2023-02-19T01:20:44.763Z,73.60839844
2023-02-19T01:21:45.296Z,73.40087891
2023-02-19T01:22:45.903Z,73.40087891
2023-02-19T01:23:46.923Z,73.60839844
2023-02-19T01:25:17.713Z,73.50463867
2023-02-19T01:26:18.262Z,73.50463867
2023-02-19T01:27:18.757Z,73.40087891
2023-02-19T01:28:19.314Z,73.29711914
2023-02-19T01:29:20.788Z,73.29711914
2023-02-19T01:30:21.417Z,73.53515625
2023-02-19T01:31:22.975Z,73.74267578
2023-02-19T01:32:23.357Z,73.84643555
2023-02-19T01:33:23.841Z,73.84643555
2023-02-19T01:34:24.358Z,73.95019531
2023-02-19T01:35:24.896Z,73.84643555
2023-02-19T01:36:25.400Z,73.95019531
2023-02-19T01:37:26.024Z,73.84643555
2023-02-19T01:38:26.492Z,73.53515625
2023-02-19T01:39:26.957Z,73.63891602
2023-02-19T01:40:27.990Z,73.84643555
2023-02-19T01:41:28.519Z,73.84643555
2023-02-19T01:42:29.735Z,73.74267578
2023-02-19T01:43:30.180Z,73.95019531
2023-02-19T01:44:30.716Z,73.95019531
2023-02-19T01:45:31.224Z,73.95019531
2023-02-19T01:46:31.811Z,73.84643555
2023-02-19T01:47:32.286Z,73.50463867
2023-02-19T01:48:32.711Z,73.4375
2023-02-19T01:49:33.183Z,73.53515625
2023-02-19T01:50:34.526Z,73.50463867
2023-02-19T01:51:35.096Z,73.08959961
2023-02-19T01:52:35.660Z,73.29711914
2023-02-19T01:53:36.124Z,73.33374023
2023-02-19T01:54:36.585Z,73.4375
2023-02-19T01:55:37.135Z,73.53515625
2023-02-19T01:56:37.636Z,73.53515625
2023-02-19T01:57:38.187Z,73.4375
2023-02-19T01:58:39.459Z,73.4375
2023-02-19T01:59:39.943Z,73.22998047
2023-02-19T02:00:41.536Z,73.33374023
2023-02-19T02:01:42.157Z,73.4375
2023-02-19T02:02:42.584Z,73.4375
2023-02-19T02:03:43.074Z,73.33374023
2023-02-19T02:04:43.598Z,73.1262207
2023-02-19T02:05:44.107Z,73.02246094
2023-02-19T02:06:44.673Z,73.22998047
2023-02-19T02:07:45.173Z,73.22998047
2023-02-19T02:08:45.625Z,73.02246094
2023-02-19T02:10:16.734Z,72.88818359
2023-02-19T02:11:18.228Z,72.78442383
2023-02-19T02:12:18.715Z,72.47314453
2023-02-19T02:13:19.227Z,72.5769043
2023-02-19T02:14:20.237Z,72.81494141
2023-02-19T02:15:20.734Z,72.81494141
2023-02-19T02:16:21.425Z,72.91870117
2023-02-19T02:17:21.706Z,72.81494141
2023-02-19T02:18:22.330Z,72.91870117
2023-02-19T02:19:22.827Z,72.91870117
2023-02-19T02:20:23.332Z,73.02246094
2023-02-19T02:21:23.847Z,72.91870117
2023-02-19T02:22:24.983Z,72.91870117
2023-02-19T02:23:25.461Z,73.02246094
2023-02-19T02:24:25.923Z,72.81494141
2023-02-19T02:25:26.399Z,72.91870117
2023-02-19T02:26:26.866Z,72.81494141
2023-02-19T02:27:27.329Z,72.81494141
2023-02-19T02:28:27.889Z,72.81494141
2023-02-19T02:29:29.304Z,72.91870117
2023-02-19T02:30:29.842Z,73.02246094
2023-02-19T02:31:31.480Z,72.91870117
2023-02-19T02:32:31.693Z,73.22998047
2023-02-19T02:33:32.289Z,73.1262207
2023-02-19T02:34:32.770Z,73.26049805
2023-02-19T02:35:33.272Z,73.33374023
2023-02-19T02:36:33.788Z,73.36425781
2023-02-19T02:37:34.289Z,73.1262207
2023-02-19T02:38:34.753Z,73.22998047
2023-02-19T02:39:35.236Z,73.22998047
2023-02-19T02:40:35.796Z,73.1262207
2023-02-19T02:41:37.231Z,72.81494141
2023-02-19T02:42:37.706Z,72.91870117
2023-02-19T02:43:38.187Z,72.71728516
2023-02-19T02:44:39.242Z,72.50976563
2023-02-19T02:45:39.970Z,72.30224609
2023-02-19T02:46:40.565Z,72.40600586
2023-02-19T02:47:40.945Z,72.40600586
2023-02-19T02:48:41.509Z,72.40600586
2023-02-19T02:49:41.962Z,72.30224609
2023-02-19T02:50:42.516Z,72.30224609
2023-02-19T02:51:43.783Z,72.19848633
2023-02-19T02:52:44.276Z,72.19848633
2023-02-19T02:53:44.780Z,72.40600586
2023-02-19T02:54:45.675Z,72.44262695
2023-02-19T02:56:16.403Z,72.64404297
2023-02-19T02:57:16.937Z,72.64404297
2023-02-19T02:58:17.445Z,72.74780273
2023-02-19T02:59:18.688Z,72.74780273
2023-02-19T03:00:19.202Z,72.74780273
2023-02-19T03:01:20.530Z,72.64404297
2023-02-19T03:02:21.053Z,72.64404297
2023-02-19T03:03:21.524Z,72.50976563
2023-02-19T03:04:22.017Z,72.40600586
2023-02-19T03:05:22.523Z,72.5402832
2023-02-19T03:06:22.983Z,72.5402832
2023-02-19T03:07:23.500Z,72.5402832
2023-02-19T03:08:24.065Z,72.5402832
2023-02-19T03:09:24.565Z,72.5402832
2023-02-19T03:10:25.102Z,72.5402832
2023-02-19T03:11:26.489Z,72.5402832
2023-02-19T03:12:26.990Z,72.64404297
2023-02-19T03:13:27.502Z,72.74780273
2023-02-19T03:14:28.007Z,72.5402832
2023-02-19T03:15:28.493Z,72.5402832
2023-02-19T03:16:28.971Z,72.19848633
2023-02-19T03:17:29.462Z,71.99707031
2023-02-19T03:18:30.014Z,71.89331055
2023-02-19T03:19:30.526Z,71.99707031
2023-02-19T03:20:31.057Z,72.13134766
2023-02-19T03:21:32.485Z,72.44262695
2023-02-19T03:22:33.045Z,72.74780273
2023-02-19T03:23:33.604Z,72.8515625
2023-02-19T03:24:34.200Z,72.88208008
2023-02-19T03:25:34.692Z,73.05908203
2023-02-19T03:26:35.211Z,72.8515625
2023-02-19T03:27:35.689Z,72.8515625
2023-02-19T03:28:36.740Z,72.95532227
2023-02-19T03:29:38.200Z,72.8515625
2023-02-19T03:30:38.765Z,72.8515625
2023-02-19T03:31:40.048Z,72.95532227
2023-02-19T03:32:40.895Z,72.8515625
2023-02-19T03:33:41.330Z,72.64404297
2023-02-19T03:34:41.836Z,72.74780273
2023-02-19T03:35:42.392Z,72.74780273
2023-02-19T03:36:42.948Z,72.8515625
2023-02-19T03:37:43.401Z,72.8515625
2023-02-19T03:38:43.968Z,72.95532227
2023-02-19T03:39:44.632Z,73.36425781
2023-02-19T03:41:15.641Z,73.26049805
2023-02-19T03:42:16.787Z,73.26049805
2023-02-19T03:43:17.310Z,73.26049805
2023-02-19T03:44:17.833Z,72.95532227
2023-02-19T03:45:18.344Z,72.95532227
2023-02-19T03:46:18.862Z,72.95532227
2023-02-19T03:47:19.405Z,73.05908203
2023-02-19T03:48:19.888Z,73.1628418
2023-02-19T03:49:20.452Z,73.26049805
2023-02-19T03:50:20.908Z,73.29711914
2023-02-19T03:51:21.535Z,73.50463867
2023-02-19T03:52:22.762Z,73.60839844
2023-02-19T03:53:23.260Z,73.80981445
2023-02-19T03:54:23.843Z,74.01733398
2023-02-19T03:55:24.310Z,74.01733398
2023-02-19T03:56:24.931Z,73.91357422
2023-02-19T03:57:25.458Z,73.91357422
2023-02-19T03:58:26.042Z,73.91357422
2023-02-19T03:59:27.243Z,73.80981445
2023-02-19T04:00:27.765Z,73.57177734
2023-02-19T04:01:28.315Z,73.46801758
2023-02-19T04:02:29.911Z,73.36425781
2023-02-19T04:03:30.452Z,73.05908203
2023-02-19T04:04:30.870Z,72.74780273
2023-02-19T04:05:31.321Z,72.74780273
2023-02-19T04:06:31.918Z,72.95532227
2023-02-19T04:07:32.434Z,72.8515625
2023-02-19T04:08:33.001Z,72.8515625
2023-02-19T04:09:33.472Z,72.74780273
2023-02-19T04:10:33.974Z,72.74780273
2023-02-19T04:11:34.591Z,72.8515625
2023-02-19T04:12:36.000Z,72.8515625
2023-02-19T04:13:36.548Z,72.8515625
2023-02-19T04:14:37.079Z,72.8515625
2023-02-19T04:15:37.577Z,72.8515625
2023-02-19T04:16:38.076Z,73.05908203
2023-02-19T04:17:38.674Z,73.26049805
2023-02-19T04:18:39.293Z,73.57177734
2023-02-19T04:19:39.688Z,73.77929688
2023-02-19T04:20:40.257Z,73.46801758
2023-02-19T04:21:40.944Z,73.67553711
2023-02-19T04:22:42.275Z,73.77929688
2023-02-19T04:23:42.823Z,73.98071289
2023-02-19T04:24:43.382Z,74.08447266
2023-02-19T04:25:43.941Z,74.39575195
2023-02-19T04:27:14.986Z,74.60327148
2023-02-19T04:28:15.505Z,74.8046875
2023-02-19T04:29:16.767Z,74.39575195
2023-02-19T04:30:17.335Z,73.36425781
2023-02-19T04:31:17.980Z,73.05908203
2023-02-19T04:32:19.275Z,72.95532227
2023-02-19T04:33:19.793Z,72.8515625
2023-02-19T04:34:20.459Z,73.05908203
2023-02-19T04:35:20.915Z,73.36425781
2023-02-19T04:36:21.448Z,73.46801758
2023-02-19T04:37:21.948Z,73.88305664
2023-02-19T04:38:22.435Z,74.29199219
2023-02-19T04:39:23.065Z,74.70092773
2023-02-19T04:40:23.601Z,74.60327148
2023-02-19T04:41:24.075Z,74.8046875
2023-02-19T04:42:25.215Z,74.90844727
2023-02-19T04:43:25.740Z,75.1159668
2023-02-19T04:44:26.307Z,75.21972656
2023-02-19T04:45:26.807Z,75.42114258
2023-02-19T04:46:27.442Z,75.62866211
2023-02-19T04:47:27.786Z,75.93994141
2023-02-19T04:48:28.300Z,76.34887695
2023-02-19T04:49:28.886Z,76.86157227
2023-02-19T04:50:29.508Z,77.0690918
2023-02-19T04:51:29.995Z,77.17285156
2023-02-19T04:52:31.242Z,77.58178711
2023-02-19T04:53:31.797Z,78.10058594
2023-02-19T04:54:32.300Z,78.40576172
2023-02-19T04:55:32.756Z,78.92456055
2023-02-19T04:56:33.319Z,79.12597656
2023-02-19T04:57:33.879Z,79.296875
2023-02-19T04:58:34.404Z,79.19311523
2023-02-19T04:59:35.726Z,79.19311523
2023-02-19T05:00:36.218Z,78.78417969
2023-02-19T05:01:36.757Z,78.68041992
2023-02-19T05:02:37.784Z,78.47290039
2023-02-19T05:03:38.311Z,78.27148438
2023-02-19T05:04:39.006Z,78.23486328
2023-02-19T05:05:39.358Z,78.54003906
2023-02-19T05:06:39.873Z,78.85131836
2023-02-19T05:07:40.663Z,79.05273438
2023-02-19T05:08:41.147Z,79.36401367
2023-02-19T05:09:41.670Z,79.26025391
2023-02-19T05:10:42.205Z,79.15649414
2023-02-19T05:11:43.478Z,78.85131836
2023-02-19T05:13:15.292Z,78.54003906
2023-02-19T05:14:15.770Z,78.3996582
2023-02-19T05:15:16.293Z,78.09448242
2023-02-19T05:16:16.736Z,77.99072266
2023-02-19T05:17:17.271Z,77.88696289
2023-02-19T05:18:17.789Z,77.99072266
2023-02-19T05:19:18.302Z,77.99072266
2023-02-19T05:20:18.817Z,77.99072266
2023-02-19T05:21:19.316Z,77.95410156
2023-02-19T05:22:20.483Z,77.64892578
2023-02-19T05:23:21.071Z,77.54516602
2023-02-19T05:24:21.582Z,77.44140625
2023-02-19T05:25:22.103Z,77.13012695
2023-02-19T05:26:22.594Z,76.92871094
2023-02-19T05:27:23.102Z,76.82495117
2023-02-19T05:28:24.560Z,76.82495117
2023-02-19T05:29:25.069Z,76.82495117
2023-02-19T05:30:25.582Z,76.78833008
2023-02-19T05:31:26.198Z,76.58081055
2023-02-19T05:32:27.462Z,76.58081055
2023-02-19T05:33:28.008Z,76.58081055
2023-02-19T05:34:28.540Z,76.58081055
2023-02-19T05:35:29.137Z,76.58081055
2023-02-19T05:36:29.571Z,76.58081055
2023-02-19T05:37:30.041Z,76.37939453
2023-02-19T05:38:30.516Z,76.37939453
2023-02-19T05:39:31.026Z,76.37939453
2023-02-19T05:40:31.530Z,76.27563477
2023-02-19T05:41:32.064Z,76.171875
2023-02-19T05:42:33.476Z,76.171875
2023-02-19T05:43:33.972Z,75.97045898
2023-02-19T05:44:34.442Z,75.86669922
2023-02-19T05:45:35.014Z,75.65917969
2023-02-19T05:46:35.609Z,75.55541992
2023-02-19T05:47:36.124Z,75.45166016
2023-02-19T05:48:36.606Z,75.65917969
2023-02-19T05:49:37.081Z,75.76293945
2023-02-19T05:50:39.718Z,75.97045898
2023-02-19T05:51:38.163Z,75.76293945
2023-02-19T05:52:39.500Z,75.97045898
2023-02-19T05:53:40.022Z,75.76293945
2023-02-19T05:54:40.771Z,75.86669922
2023-02-19T05:55:41.381Z,75.86669922
2023-02-19T05:56:41.903Z,75.86669922
2023-02-19T05:57:43.652Z,76.171875
2023-02-19T05:58:44.008Z,76.4831543
2023-02-19T06:00:14.746Z,76.4831543
2023-02-19T06:01:15.302Z,76.37939453
2023-02-19T06:02:15.778Z,76.27563477
2023-02-19T06:03:17.268Z,76.27563477
2023-02-19T06:04:17.837Z,76.37939453
2023-02-19T06:05:18.364Z,76.4831543
2023-02-19T06:06:18.908Z,76.4831543
2023-02-19T06:07:19.374Z,76.37939453
2023-02-19T06:08:19.814Z,76.34277344
2023-02-19T06:09:20.289Z,76.23901367
2023-02-19T06:10:20.769Z,76.23901367
2023-02-19T06:11:21.267Z,76.13525391
2023-02-19T06:12:21.738Z,76.13525391
2023-02-19T06:13:23.221Z,76.03759766
2023-02-19T06:14:23.734Z,76.13525391
2023-02-19T06:15:24.270Z,76.37939453
2023-02-19T06:16:24.810Z,76.34277344
2023-02-19T06:17:25.275Z,76.34277344
2023-02-19T06:18:25.747Z,76.34277344
2023-02-19T06:19:26.210Z,76.23901367
2023-02-19T06:20:26.728Z,76.23901367
2023-02-19T06:21:27.865Z,76.23901367
2023-02-19T06:22:27.712Z,76.13525391
2023-02-19T06:23:28.752Z,76.03759766
2023-02-19T06:24:29.252Z,76.13525391
2023-02-19T06:25:29.721Z,76.03759766
2023-02-19T06:26:30.218Z,75.93383789
2023-02-19T06:27:30.713Z,76.03759766
2023-02-19T06:28:31.178Z,76.03759766
2023-02-19T06:29:32.494Z,75.83007813
2023-02-19T06:30:33.062Z,75.83007813
2023-02-19T06:31:33.597Z,75.93383789
2023-02-19T06:32:34.035Z,75.83007813
2023-02-19T06:33:35.258Z,75.62255859
2023-02-19T06:34:35.749Z,75.62255859
2023-02-19T06:35:36.227Z,75.62255859
2023-02-19T06:36:36.907Z,75.62255859
2023-02-19T06:37:37.269Z,75.62255859
2023-02-19T06:38:37.781Z,75.52490234
2023-02-19T06:39:38.283Z,75.42114258
2023-02-19T06:40:38.794Z,75.0793457
2023-02-19T06:41:39.369Z,74.87182617
2023-02-19T06:42:39.908Z,74.87182617
2023-02-19T06:43:41.286Z,74.76806641
2023-02-19T06:44:41.802Z,74.76806641
2023-02-19T06:45:42.293Z,74.87182617
2023-02-19T06:47:13.232Z,74.76806641
2023-02-19T06:48:13.691Z,74.76806641
2023-02-19T06:49:14.161Z,74.66430664
2023-02-19T06:50:14.663Z,74.66430664
2023-02-19T06:51:15.125Z,74.66430664
2023-02-19T06:52:15.658Z,74.76806641
2023-02-19T06:53:17.008Z,74.56665039
2023-02-19T06:54:17.493Z,74.46289063
2023-02-19T06:55:18.018Z,74.35913086
2023-02-19T06:56:18.505Z,74.35913086
2023-02-19T06:57:18.996Z,74.21875
2023-02-19T06:58:19.511Z,74.15161133
2023-02-19T06:59:19.948Z,74.01733398
2023-02-19T07:00:21.201Z,74.01733398
2023-02-19T07:01:21.802Z,73.91357422
2023-02-19T07:02:22.204Z,73.70605469
2023-02-19T07:03:23.493Z,73.70605469
2023-02-19T07:04:24.058Z,73.70605469
2023-02-19T07:05:24.483Z,73.60839844
2023-02-19T07:06:24.996Z,73.60839844
2023-02-19T07:07:25.497Z,73.70605469
2023-02-19T07:08:27.928Z,73.70605469
2023-02-19T07:09:26.445Z,73.70605469
2023-02-19T07:10:26.900Z,73.50463867
2023-02-19T07:11:27.343Z,73.40087891
2023-02-19T07:12:27.826Z,73.29711914
2023-02-19T07:13:29.217Z,73.29711914
2023-02-19T07:14:30.470Z,73.40087891
2023-02-19T07:15:30.976Z,73.40087891
2023-02-19T07:16:31.543Z,73.46801758
2023-02-19T07:17:31.900Z,73.36425781
2023-02-19T07:18:32.422Z,73.26660156
2023-02-19T07:19:32.848Z,73.1628418
2023-02-19T07:20:33.307Z,73.1628418
2023-02-19T07:21:33.852Z,73.05908203
2023-02-19T07:22:34.468Z,73.1628418
2023-02-19T07:23:35.697Z,72.95532227
2023-02-19T07:24:36.173Z,72.95532227
2023-02-19T07:25:36.630Z,73.1628418
2023-02-19T07:26:37.188Z,73.26660156
2023-02-19T07:27:37.683Z,73.29711914
2023-02-19T07:28:39.001Z,73.50463867
2023-02-19T07:29:39.487Z,73.60839844
2023-02-19T07:30:39.959Z,73.70605469
2023-02-19T07:31:40.780Z,73.70605469
2023-02-19T07:32:41.296Z,73.80981445
2023-02-19T07:33:42.232Z,73.91357422
2023-02-19T07:35:12.964Z,74.01733398
2023-02-19T07:36:13.500Z,74.12109375
2023-02-19T07:37:13.929Z,74.21875
2023-02-19T07:38:14.443Z,74.12109375
2023-02-19T07:39:14.920Z,74.21875
2023-02-19T07:40:15.420Z,74.12109375
2023-02-19T07:41:16.011Z,74.18823242
2023-02-19T07:42:16.561Z,74.08447266
2023-02-19T07:43:17.987Z,73.87695313
2023-02-19T07:44:18.520Z,73.87695313
2023-02-19T07:45:18.969Z,73.67553711
2023-02-19T07:46:19.491Z,73.67553711
2023-02-19T07:47:20.020Z,73.87695313
2023-02-19T07:48:20.475Z,73.87695313
2023-02-19T07:49:20.969Z,73.98071289
2023-02-19T07:50:21.487Z,74.08447266
2023-02-19T07:51:22.130Z,74.18823242
2023-02-19T07:52:22.607Z,74.08447266
2023-02-19T07:53:24.001Z,74.29199219
2023-02-19T07:54:24.479Z,74.38964844
2023-02-19T07:55:24.975Z,74.4934082
2023-02-19T07:56:25.443Z,74.59716797
2023-02-19T07:57:25.955Z,74.4934082
2023-02-19T07:58:27.001Z,74.4934082
2023-02-19T07:59:27.466Z,74.38964844
2023-02-19T08:00:27.962Z,74.59716797
2023-02-19T08:01:28.469Z,74.59716797
2023-02-19T08:02:28.941Z,74.4934082
2023-02-19T08:03:30.000Z,74.4934082
2023-02-19T08:04:30.463Z,74.29199219
2023-02-19T08:05:30.957Z,74.15161133
2023-02-19T08:06:31.468Z,73.95019531
2023-02-19T08:07:32.018Z,73.95019531
2023-02-19T08:08:32.580Z,73.95019531
2023-02-19T08:09:32.990Z,73.74267578
2023-02-19T08:10:33.475Z,73.33374023
2023-02-19T08:11:33.939Z,73.09570313
2023-02-19T08:12:34.442Z,73.19946289
2023-02-19T08:13:35.491Z,72.88818359
2023-02-19T08:14:36.011Z,72.17407227
2023-02-19T08:15:36.530Z,72.47924805
2023-02-19T08:16:43.372Z,72.68676758
2023-02-19T08:17:37.577Z,72.58300781
2023-02-19T08:18:38.084Z,72.68676758
2023-02-19T08:19:38.565Z,72.58300781
2023-02-19T08:20:39.052Z,72.47924805
2023-02-19T08:21:39.541Z,72.37548828
2023-02-19T08:22:40.058Z,72.27783203
2023-02-19T08:23:41.509Z,71.96655273
2023-02-19T08:25:12.242Z,71.96655273
2023-02-19T08:26:12.726Z,72.0703125
2023-02-19T08:27:13.241Z,72.17407227
2023-02-19T08:28:13.760Z,72.0703125
2023-02-19T08:29:14.256Z,72.0703125
2023-02-19T08:30:14.789Z,71.96655273
2023-02-19T08:31:15.589Z,72.0703125
2023-02-19T08:32:15.863Z,72.17407227
2023-02-19T08:33:16.342Z,72.27783203
2023-02-19T08:34:17.770Z,72.17407227
2023-02-19T08:35:18.346Z,72.17407227
2023-02-19T08:36:18.794Z,72.27783203
2023-02-19T08:37:19.345Z,72.17407227
2023-02-19T08:38:19.906Z,72.0703125
2023-02-19T08:39:21.111Z,71.93603516
2023-02-19T08:40:20.942Z,71.93603516
2023-02-19T08:41:21.405Z,71.72851563
2023-02-19T08:42:21.919Z,71.72851563
2023-02-19T08:43:22.429Z,71.72851563
2023-02-19T08:44:22.870Z,71.52709961
2023-02-19T08:45:24.242Z,71.62475586
2023-02-19T08:46:24.845Z,71.62475586
2023-02-19T08:47:25.251Z,71.31958008
2023-02-19T08:48:25.714Z,70.91064453
2023-02-19T08:49:26.195Z,70.73974609
2023-02-19T08:50:26.690Z,70.94116211
2023-02-19T08:51:27.195Z,70.73974609
2023-02-19T08:52:27.671Z,70.63598633
2023-02-19T08:53:28.202Z,70.53222656
2023-02-19T08:54:29.387Z,70.43457031
2023-02-19T08:55:29.750Z,70.43457031
2023-02-19T08:56:30.993Z,70.63598633
2023-02-19T08:57:31.534Z,70.53222656
2023-02-19T08:58:32.046Z,70.33081055
2023-02-19T08:59:32.527Z,70.39794922
2023-02-19T09:00:33.997Z,69.88525391
2023-02-19T09:01:34.533Z,70.09277344
2023-02-19T09:02:34.996Z,70.09277344
2023-02-19T09:03:35.471Z,70.29418945
2023-02-19T09:04:36.804Z,69.68383789
2023-02-19T09:05:37.325Z,69.44580078
2023-02-19T09:06:40.000Z,69.54956055
2023-02-19T09:07:38.328Z,69.140625
2023-02-19T09:08:38.872Z,69.24438477
2023-02-19T09:09:39.495Z,69.140625
2023-02-19T09:10:39.824Z,68.83544922
2023-02-19T09:11:40.421Z,68.42041016
2023-02-19T09:13:11.482Z,68.73168945
2023-02-19T09:14:12.789Z,68.52416992
2023-02-19T09:15:14.313Z,68.62792969
2023-02-19T09:16:14.723Z,68.83544922
2023-02-19T09:17:15.220Z,68.73168945
2023-02-19T09:18:15.698Z,69.140625
2023-02-19T09:19:16.199Z,69.140625
2023-02-19T09:20:16.728Z,69.03686523
2023-02-19T09:21:17.234Z,69.140625
2023-02-19T09:22:17.772Z,69.140625
2023-02-19T09:23:18.310Z,69.75097656
2023-02-19T09:24:19.525Z,69.34204102
2023-02-19T09:25:19.973Z,69.140625
2023-02-19T09:26:20.547Z,69.140625
2023-02-19T09:27:21.073Z,69.03686523
2023-02-19T09:28:21.541Z,68.73168945
2023-02-19T09:29:22.017Z,69.03686523
2023-02-19T09:30:23.165Z,68.93310547
2023-02-19T09:31:23.649Z,69.03686523
2023-02-19T09:32:24.073Z,68.93310547
2023-02-19T09:33:24.640Z,69.140625
2023-02-19T09:34:26.006Z,69.140625
2023-02-19T09:35:26.454Z,69.20776367
2023-02-19T09:36:26.976Z,69.00634766
2023-02-19T09:37:27.492Z,68.90258789
2023-02-19T09:38:27.988Z,68.79882813
2023-02-19T09:39:28.492Z,68.90258789
2023-02-19T09:40:28.939Z,68.79882813
2023-02-19T09:41:29.513Z,68.49365234
2023-02-19T09:42:29.983Z,68.18847656
2023-02-19T09:43:30.539Z,68.0847168
2023-02-19T09:44:32.506Z,68.18847656
2023-02-19T09:45:32.967Z,68.38989258
2023-02-19T09:46:33.500Z,68.38989258
2023-02-19T09:47:33.987Z,68.49365234
2023-02-19T09:48:34.458Z,68.18847656
2023-02-19T09:49:35.537Z,68.29223633
2023-02-19T09:50:36.019Z,68.29223633
2023-02-19T09:51:36.500Z,68.29223633
2023-02-19T09:52:37.051Z,68.29223633
2023-02-19T09:53:37.552Z,68.38989258
2023-02-19T09:54:38.779Z,68.49365234
2023-02-19T09:55:39.782Z,68.29223633
2023-02-19T09:57:11.109Z,68.38989258
2023-02-19T09:58:11.661Z,68.49365234
2023-02-19T09:59:12.171Z,68.359375
2023-02-19T10:00:13.234Z,68.15795898
2023-02-19T10:01:14.070Z,68.359375
2023-02-19T10:02:14.195Z,68.15795898
2023-02-19T10:03:14.716Z,68.15795898
2023-02-19T10:04:16.026Z,68.05419922
2023-02-19T10:05:16.618Z,68.05419922
2023-02-19T10:06:16.999Z,68.25561523
2023-02-19T10:07:17.469Z,69.28100586
2023-02-19T10:08:18.047Z,68.76831055
2023-02-19T10:09:19.308Z,68.46313477
2023-02-19T10:10:19.897Z,67.61474609
2023-02-19T10:11:20.362Z,67.51098633
2023-02-19T10:12:20.801Z,67.51098633
2023-02-19T10:13:21.374Z,67.20581055
2023-02-19T10:14:22.527Z,67.10205078
2023-02-19T10:15:23.078Z,67.10205078
2023-02-19T10:16:23.557Z,67.3034668
2023-02-19T10:17:24.064Z,67.20581055
2023-02-19T10:18:24.616Z,67.40722656
2023-02-19T10:19:25.110Z,67.51098633
2023-02-19T10:20:25.720Z,67.51098633
2023-02-19T10:21:26.192Z,67.61474609
2023-02-19T10:22:26.651Z,67.71240234
2023-02-19T10:23:27.190Z,67.40722656
2023-02-19T10:24:28.605Z,67.40722656
2023-02-19T10:25:29.153Z,67.61474609
2023-02-19T10:26:29.557Z,67.81616211
2023-02-19T10:27:30.049Z,67.81616211
2023-02-19T10:28:30.522Z,67.71240234
2023-02-19T10:29:31.123Z,67.71240234
2023-02-19T10:30:31.788Z,67.40722656
2023-02-19T10:31:32.912Z,67.51098633
2023-02-19T10:32:33.283Z,67.61474609
2023-02-19T10:33:33.811Z,67.71240234
2023-02-19T10:34:35.025Z,67.81616211
2023-02-19T10:35:35.587Z,67.61474609
2023-02-19T10:36:36.439Z,68.02368164
2023-02-19T10:37:37.005Z,68.12133789
2023-02-19T10:38:37.482Z,68.22509766
2023-02-19T10:39:38.110Z,67.81616211
2023-02-19T10:40:38.851Z,67.71240234
2023-02-19T10:41:39.191Z,67.51098633
2023-02-19T10:43:10.956Z,67.61474609
2023-02-19T10:44:11.571Z,67.51098633
2023-02-19T10:45:12.772Z,67.71240234
2023-02-19T10:46:13.558Z,67.81616211
2023-02-19T10:47:14.031Z,67.81616211
2023-02-19T10:48:14.580Z,67.51098633
2023-02-19T10:49:15.424Z,67.81616211
2023-02-19T10:50:16.006Z,67.71240234
2023-02-19T10:51:16.517Z,67.81616211
2023-02-19T10:52:17.178Z,67.81616211
2023-02-19T10:53:18.024Z,67.8894043
2023-02-19T10:54:18.582Z,67.61474609
2023-02-19T10:55:19.856Z,67.61474609
2023-02-19T10:56:20.372Z,67.81616211
2023-02-19T10:57:21.130Z,67.78564453
2023-02-19T10:58:21.882Z,67.71240234
2023-02-19T10:59:23.011Z,67.78564453
2023-02-19T11:00:23.544Z,67.68188477
2023-02-19T11:01:24.131Z,67.68188477
2023-02-19T11:02:24.624Z,67.48046875
2023-02-19T11:03:25.142Z,67.578125
2023-02-19T11:04:25.683Z,67.68188477